| time (UTC) | temp F | wind direction | speed knots | gust knots | rain 1hr in | rain 24hr in | rain mn in | humidity % | barometer mb |
| 20260507222320 | 50 | 150 | 0.0 | 2.6 | 0.00 | 0.00 | 0.00 | 78 | 1015.3 |
| 20260507221340 | 50 | 0.0 | 0.0 | 0.00 | 0.00 | 0.00 | 78 | 1015.3 | |
| 20260507220317 | 50 | 166 | 0.9 | 2.6 | 0.00 | 0.00 | 0.00 | 78 | 1015.3 |
| 20260507215337 | 50 | 0.0 | 0.0 | 0.00 | 0.00 | 0.00 | 78 | 1015.3 | |
| 20260507214318 | 50 | 0.0 | 0.0 | 0.00 | 0.00 | 0.00 | 78 | 1015.3 | |
| 20260507213317 | 50 | 174 | 0.9 | 2.6 | 0.00 | 0.00 | 0.00 | 79 | 1015.2 |
| 20260507212317 | 50 | 189 | 0.9 | 2.6 | 0.00 | 0.00 | 0.00 | 79 | 1015.3 |
| 20260507211318 | 50 | 0.0 | 0.0 | 0.00 | 0.00 | 0.00 | 79 | 1015.2 | |
| 20260507210318 | 50 | 0.0 | 0.0 | 0.00 | 0.00 | 0.00 | 78 | 1015.2 | |
| 20260507205318 | 50 | 0.0 | 0.0 | 0.00 | 0.00 | 0.00 | 78 | 1015.1 | |
| 20260507204318 | 51 | 0.0 | 0.0 | 0.00 | 0.00 | 0.00 | 77 | 1015.0 | |
| 20260507203318 | 51 | 0.0 | 0.0 | 0.00 | 0.00 | 0.00 | 76 | 1014.9 | |
| 20260507202318 | 51 | 0.0 | 0.0 | 0.00 | 0.00 | 0.00 | 75 | 1014.8 | |
| 20260507201319 | 51 | 0.0 | 0.0 | 0.00 | 0.00 | 0.00 | 74 | 1014.8 | |
| 20260507200318 | 51 | 75 | 0.0 | 1.7 | 0.00 | 0.00 | 0.00 | 75 | 1014.6 |
| 20260507195319 | 52 | 0.0 | 0.0 | 0.00 | 0.00 | 0.00 | 73 | 1014.6 | |
| 20260507194320 | 52 | 0.0 | 0.0 | 0.00 | 0.00 | 0.00 | 71 | 1014.5 | |
| 20260507193316 | 52 | 0.0 | 0.0 | 0.00 | 0.00 | 0.00 | 71 | 1014.4 | |
| 20260507192316 | 53 | 138 | 0.0 | 1.7 | 0.00 | 0.00 | 0.00 | 70 | 1014.3 |
| 20260507191319 | 53 | 200 | 1.7 | 3.5 | 0.00 | 0.00 | 0.00 | 68 | 1014.4 |
| 20260507190320 | 54 | 171 | 1.7 | 3.5 | 0.00 | 0.00 | 0.00 | 66 | 1014.3 |
| 20260507185317 | 54 | 213 | 1.7 | 3.5 | 0.00 | 0.00 | 0.00 | 66 | 1014.2 |
| 20260507184317 | 54 | 215 | 1.7 | 3.5 | 0.00 | 0.00 | 0.00 | 68 | 1014.2 |
| 20260507183317 | 55 | 216 | 1.7 | 3.5 | 0.00 | 0.00 | 0.00 | 67 | 1014.1 |
| 20260507182337 | 55 | 210 | 1.7 | 4.3 | 0.00 | 0.00 | 0.00 | 74 | 1014.1 |
| 20260507181317 | 55 | 0.0 | 0.0 | 0.00 | 0.00 | 0.00 | 78 | 1014.1 | |
| 20260507180318 | 54 | 0.0 | 0.0 | 0.00 | 0.00 | 0.00 | 79 | 1014.1 | |
| 20260507175318 | 54 | 118 | 0.9 | 2.6 | 0.00 | 0.00 | 0.00 | 78 | 1014.0 |
| 20260507174318 | 54 | 139 | 0.9 | 3.5 | 0.00 | 0.00 | 0.00 | 77 | 1014.1 |
| 20260507173318 | 55 | 94 | 0.9 | 2.6 | 0.00 | 0.00 | 0.00 | 76 | 1014.1 |
| 20260507172319 | 55 | 125 | 3.5 | 5.2 | 0.00 | 0.00 | 0.00 | 75 | 1014.1 |
| 20260507171316 | 56 | 197 | 1.7 | 3.5 | 0.00 | 0.00 | 0.00 | 71 | 1014.1 |
| 20260507170316 | 56 | 204 | 1.7 | 3.5 | 0.00 | 0.00 | 0.00 | 71 | 1014.0 |
| 20260507165319 | 56 | 220 | 3.5 | 5.2 | 0.00 | 0.00 | 0.00 | 69 | 1014.1 |
| 20260507164320 | 56 | 229 | 0.9 | 2.6 | 0.00 | 0.00 | 0.00 | 69 | 1014.1 |
| 20260507163339 | 55 | 198 | 0.0 | 2.6 | 0.00 | 0.00 | 0.00 | 72 | 1014.0 |
| 20260507162317 | 55 | 221 | 0.9 | 3.5 | 0.00 | 0.00 | 0.00 | 76 | 1014.1 |
| 20260507161317 | 54 | 206 | 0.0 | 1.7 | 0.00 | 0.00 | 0.00 | 78 | 1014.1 |
| 20260507160317 | 53 | 184 | 0.0 | 1.7 | 0.00 | 0.00 | 0.00 | 78 | 1014.1 |
| 20260507155317 | 54 | 314 | 0.0 | 1.7 | 0.00 | 0.00 | 0.00 | 78 | 1014.0 |
| 20260507154320 | 53 | 0.0 | 0.0 | 0.00 | 0.00 | 0.00 | 78 | 1014.1 | |
| 20260507153317 | 54 | 0.0 | 0.0 | 0.00 | 0.00 | 0.00 | 77 | 1014.1 | |
| 20260507152318 | 54 | 190 | 0.0 | 0.9 | 0.00 | 0.00 | 0.00 | 75 | 1014.1 |
| 20260507151337 | 55 | 285 | 0.0 | 1.7 | 0.00 | 0.00 | 0.00 | 71 | 1014.1 |
| 20260507150318 | 56 | 222 | 0.0 | 2.6 | 0.00 | 0.00 | 0.00 | 68 | 1014.1 |
| 20260507145339 | 56 | 154 | 0.9 | 5.2 | 0.00 | 0.00 | 0.00 | 67 | 1014.0 |
| 20260507144318 | 57 | 110 | 1.7 | 3.5 | 0.00 | 0.00 | 0.00 | 65 | 1014.0 |
| 20260507143318 | 57 | 134 | 0.0 | 1.7 | 0.00 | 0.00 | 0.00 | 63 | 1014.0 |
| 20260507142318 | 57 | 172 | 1.7 | 3.5 | 0.00 | 0.00 | 0.00 | 63 | 1014.2 |
| 20260507141319 | 57 | 168 | 1.7 | 4.3 | 0.00 | 0.00 | 0.00 | 64 | 1014.3 |
| 20260507140319 | 56 | 175 | 1.7 | 3.5 | 0.00 | 0.00 | 0.00 | 65 | 1014.4 |
| 20260507135319 | 56 | 153 | 0.9 | 2.6 | 0.00 | 0.00 | 0.00 | 64 | 1014.4 |
| 20260507134336 | 56 | 130 | 0.0 | 0.9 | 0.00 | 0.00 | 0.00 | 64 | 1014.4 |
| 20260507133316 | 56 | 177 | 0.0 | 1.7 | 0.00 | 0.00 | 0.00 | 64 | 1014.4 |
| 20260507132320 | 56 | 96 | 0.9 | 2.6 | 0.00 | 0.00 | 0.00 | 64 | 1014.4 |
| 20260507131319 | 57 | 117 | 2.6 | 5.2 | 0.00 | 0.00 | 0.00 | 64 | 1014.5 |
| 20260507130317 | 57 | 117 | 2.6 | 4.3 | 0.00 | 0.00 | 0.00 | 64 | 1014.5 |
| 20260507125317 | 57 | 115 | 2.6 | 3.5 | 0.00 | 0.00 | 0.00 | 62 | 1014.5 |
| 20260507124318 | 58 | 117 | 3.5 | 6.1 | 0.00 | 0.00 | 0.00 | 62 | 1014.4 |
| 20260507123357 | 58 | 159 | 1.7 | 4.3 | 0.00 | 0.00 | 0.00 | 60 | 1014.5 |
| 20260507122318 | 57 | 118 | 3.5 | 5.2 | 0.00 | 0.00 | 0.00 | 61 | 1014.6 |
| 20260507121317 | 57 | 107 | 2.6 | 5.2 | 0.00 | 0.00 | 0.00 | 62 | 1014.6 |
| 20260507120318 | 57 | 106 | 2.6 | 4.3 | 0.00 | 0.00 | 0.00 | 62 | 1014.7 |
| 20260507115318 | 57 | 172 | 2.6 | 4.3 | 0.00 | 0.00 | 0.00 | 62 | 1014.8 |
| 20260507114318 | 56 | 114 | 0.9 | 3.5 | 0.00 | 0.00 | 0.00 | 64 | 1014.8 |
| 20260507113318 | 56 | 165 | 0.0 | 1.7 | 0.00 | 0.00 | 0.00 | 65 | 1014.8 |
| 20260507112338 | 55 | 179 | 0.0 | 1.7 | 0.00 | 0.00 | 0.00 | 65 | 1014.8 |
| 20260507111319 | 55 | 109 | 1.7 | 3.5 | 0.00 | 0.00 | 0.00 | 67 | 1014.8 |
| 20260507110318 | 54 | 135 | 2.6 | 5.2 | 0.00 | 0.00 | 0.00 | 69 | 1014.8 |
| 20260507105319 | 53 | 119 | 0.9 | 3.5 | 0.00 | 0.00 | 0.00 | 70 | 1014.9 |
| 20260507104339 | 53 | 105 | 3.5 | 5.2 | 0.00 | 0.00 | 0.00 | 71 | 1014.9 |
| 20260507103319 | 52 | 119 | 2.6 | 3.5 | 0.00 | 0.00 | 0.00 | 71 | 1015.0 |
| 20260507102348 | 52 | 126 | 1.7 | 4.3 | 0.00 | 0.00 | 0.00 | 72 | 1015.1 |
| 20260507101328 | 51 | 130 | 0.0 | 0.9 | 0.00 | 0.00 | 0.00 | 73 | 1015.0 |
| 20260507100328 | 51 | 134 | 1.7 | 3.5 | 0.00 | 0.00 | 0.00 | 73 | 1015.0 |
| 20260507095329 | 51 | 116 | 0.9 | 2.6 | 0.00 | 0.00 | 0.00 | 74 | 1015.0 |
| 20260507094329 | 50 | 125 | 0.0 | 0.9 | 0.00 | 0.00 | 0.00 | 76 | 1014.9 |
| 20260507093329 | 50 | 126 | 1.7 | 2.6 | 0.00 | 0.00 | 0.00 | 77 | 1014.9 |
| 20260507092329 | 50 | 0.0 | 0.0 | 0.00 | 0.00 | 0.00 | 78 | 1014.9 | |
| 20260507091329 | 49 | 105 | 1.7 | 4.3 | 0.00 | 0.00 | 0.00 | 78 | 1014.9 |
| 20260507090320 | 49 | 110 | 2.6 | 6.1 | 0.00 | 0.00 | 0.00 | 78 | 1014.9 |
| 20260507085350 | 49 | 116 | 1.7 | 3.5 | 0.00 | 0.00 | 0.00 | 77 | 1014.9 |
| 20260507084329 | 49 | 119 | 0.9 | 2.6 | 0.00 | 0.00 | 0.00 | 77 | 1014.9 |
| 20260507083330 | 49 | 121 | 1.7 | 2.6 | 0.00 | 0.00 | 0.00 | 77 | 1014.9 |
| 20260507082321 | 49 | 116 | 3.5 | 5.2 | 0.00 | 0.00 | 0.00 | 77 | 1014.8 |
| 20260507081321 | 49 | 94 | 1.7 | 3.5 | 0.00 | 0.00 | 0.00 | 77 | 1014.9 |
| 20260507080321 | 49 | 114 | 1.7 | 2.6 | 0.00 | 0.00 | 0.00 | 77 | 1014.9 |
| 20260507075342 | 48 | 110 | 2.6 | 4.3 | 0.00 | 0.00 | 0.00 | 78 | 1014.9 |
| 20260507074321 | 48 | 113 | 0.9 | 2.6 | 0.00 | 0.00 | 0.00 | 78 | 1014.8 |
| 20260507073322 | 48 | 150 | 2.6 | 4.3 | 0.00 | 0.00 | 0.00 | 78 | 1014.8 |
| 20260507072331 | 48 | 118 | 0.9 | 2.6 | 0.00 | 0.00 | 0.00 | 78 | 1014.8 |
| 20260507071331 | 48 | 140 | 0.9 | 2.6 | 0.00 | 0.00 | 0.00 | 79 | 1014.8 |
| 20260507070322 | 48 | 101 | 0.9 | 2.6 | 0.00 | 0.00 | 0.00 | 79 | 1014.7 |
| 20260507065316 | 47 | 141 | 1.7 | 5.2 | 0.00 | 0.00 | 0.00 | 79 | 1014.7 |
| 20260507064316 | 47 | 136 | 0.9 | 1.7 | 0.00 | 0.00 | 0.00 | 79 | 1014.6 |
| 20260507063357 | 47 | 127 | 0.0 | 0.0 | 0.00 | 0.00 | 0.00 | 79 | 1014.7 |
| 20260507062317 | 47 | 132 | 1.7 | 2.6 | 0.00 | 0.00 | 0.00 | 79 | 1014.7 |
| 20260507061317 | 47 | 125 | 0.0 | 0.9 | 0.00 | 0.00 | 0.00 | 79 | 1014.7 |
| 20260507060317 | 47 | 86 | 0.0 | 0.0 | 0.00 | 0.00 | 0.00 | 79 | 1014.6 |
| 20260507055317 | 47 | 114 | 0.9 | 1.7 | 0.00 | 0.00 | 0.00 | 79 | 1014.6 |
| 20260507054318 | 47 | 127 | 0.0 | 0.9 | 0.00 | 0.00 | 0.00 | 79 | 1014.5 |
| 20260507053318 | 47 | 135 | 2.6 | 3.5 | 0.00 | 0.00 | 0.00 | 80 | 1014.5 |
| 20260507052318 | 47 | 135 | 1.7 | 1.7 | 0.00 | 0.00 | 0.00 | 80 | 1014.5 |
| 20260507051318 | 46 | 126 | 0.9 | 1.7 | 0.00 | 0.00 | 0.00 | 80 | 1014.6 |
| 20260507050318 | 46 | 115 | 2.6 | 3.5 | 0.00 | 0.00 | 0.00 | 80 | 1014.5 |
| 20260507045319 | 46 | 118 | 1.7 | 5.2 | 0.00 | 0.00 | 0.00 | 80 | 1014.4 |
| 20260507044318 | 46 | 116 | 1.7 | 2.6 | 0.00 | 0.00 | 0.00 | 80 | 1014.4 |
| 20260507043319 | 46 | 119 | 1.7 | 3.5 | 0.00 | 0.00 | 0.00 | 80 | 1014.4 |
| 20260507042316 | 46 | 118 | 2.6 | 4.3 | 0.00 | 0.00 | 0.00 | 80 | 1014.4 |
| 20260507041336 | 46 | 106 | 2.6 | 4.3 | 0.00 | 0.00 | 0.00 | 81 | 1014.5 |
| 20260507040359 | 46 | 113 | 2.6 | 4.3 | 0.00 | 0.00 | 0.00 | 81 | 1014.5 |
| 20260507035320 | 46 | 119 | 2.6 | 4.3 | 0.00 | 0.00 | 0.00 | 81 | 1014.5 |
| 20260507034320 | 46 | 117 | 2.6 | 4.3 | 0.00 | 0.00 | 0.00 | 81 | 1014.5 |
| 20260507033337 | 46 | 111 | 1.7 | 3.5 | 0.00 | 0.00 | 0.00 | 81 | 1014.5 |
| 20260507032317 | 46 | 122 | 3.5 | 4.3 | 0.00 | 0.00 | 0.00 | 81 | 1014.5 |
| 20260507031317 | 46 | 123 | 2.6 | 3.5 | 0.00 | 0.00 | 0.00 | 81 | 1014.6 |
| 20260507030317 | 46 | 134 | 1.7 | 3.5 | 0.00 | 0.00 | 0.00 | 81 | 1014.6 |
| 20260507025320 | 46 | 119 | 1.7 | 3.5 | 0.00 | 0.00 | 0.00 | 81 | 1014.6 |
| 20260507024318 | 46 | 126 | 3.5 | 5.2 | 0.00 | 0.00 | 0.00 | 81 | 1014.6 |
| 20260507023318 | 46 | 109 | 1.7 | 2.6 | 0.00 | 0.00 | 0.00 | 81 | 1014.7 |
| 20260507022317 | 46 | 108 | 0.9 | 3.5 | 0.00 | 0.00 | 0.00 | 80 | 1014.8 |
| 20260507021318 | 46 | 142 | 1.7 | 4.3 | 0.00 | 0.00 | 0.00 | 80 | 1014.8 |
| 20260507020318 | 47 | 129 | 0.9 | 2.6 | 0.00 | 0.00 | 0.00 | 80 | 1014.7 |
| 20260507015318 | 46 | 119 | 1.7 | 3.5 | 0.00 | 0.00 | 0.00 | 80 | 1014.7 |
| 20260507014338 | 46 | 127 | 1.7 | 3.5 | 0.00 | 0.00 | 0.00 | 80 | 1014.7 |
| 20260507013358 | 46 | 138 | 1.7 | 3.5 | 0.00 | 0.00 | 0.00 | 81 | 1014.7 |
| 20260507012339 | 46 | 128 | 2.6 | 4.3 | 0.00 | 0.00 | 0.00 | 81 | 1014.7 |
| 20260507011319 | 46 | 112 | 1.7 | 3.5 | 0.00 | 0.00 | 0.00 | 80 | 1014.7 |
| 20260507010316 | 46 | 127 | 0.9 | 2.6 | 0.00 | 0.00 | 0.00 | 80 | 1014.8 |
| 20260507005316 | 46 | 112 | 0.9 | 3.5 | 0.00 | 0.00 | 0.00 | 80 | 1014.9 |
| 20260507004317 | 46 | 94 | 2.6 | 5.2 | 0.00 | 0.00 | 0.00 | 80 | 1014.8 |
| 20260507003319 | 46 | 120 | 1.7 | 3.5 | 0.00 | 0.00 | 0.00 | 80 | 1014.9 |
| 20260507002320 | 46 | 117 | 1.7 | 3.5 | 0.00 | 0.00 | 0.00 | 80 | 1014.9 |
| 20260507001317 | 46 | 119 | 1.7 | 3.5 | 0.00 | 0.00 | 0.00 | 80 | 1015.0 |
| 20260507000317 | 46 | 125 | 1.7 | 2.6 | 0.00 | 0.00 | 0.00 | 79 | 1015.0 |
| 20260506235317 | 47 | 122 | 1.7 | 2.6 | 0.00 | 0.00 | 0.00 | 79 | 1015.1 |
| 20260506234318 | 47 | 117 | 2.6 | 4.3 | 0.00 | 0.00 | 0.00 | 79 | 1014.9 |
| 20260506233318 | 47 | 134 | 0.9 | 2.6 | 0.00 | 0.00 | 0.00 | 78 | 1014.9 |
| 20260506232318 | 47 | 143 | 1.7 | 5.2 | 0.00 | 0.00 | 0.00 | 78 | 1014.9 |
| 20260506231338 | 47 | 125 | 3.5 | 6.1 | 0.00 | 0.00 | 0.00 | 78 | 1014.9 |
| 20260506230319 | 48 | 105 | 1.7 | 4.3 | 0.00 | 0.00 | 0.00 | 78 | 1014.9 |
| 20260506225319 | 48 | 133 | 1.7 | 4.3 | 0.00 | 0.00 | 0.00 | 78 | 1014.9 |
| 20260506224316 | 48 | 112 | 0.9 | 2.6 | 0.00 | 0.00 | 0.00 | 78 | 1014.9 |
| 20260506223319 | 48 | 123 | 2.6 | 4.3 | 0.00 | 0.00 | 0.00 | 77 | 1014.9 |